sensor_id;sensor_type;location;lat;lon;timestamp;temperature;humidity
60727;DHT22;46577;49.004;12.120;2023-04-24T00:00:01;12.40;99.90
60727;DHT22;46577;49.004;12.120;2023-04-24T00:02:26;12.50;99.90
60727;DHT22;46577;49.004;12.120;2023-04-24T00:04:52;12.50;99.90
60727;DHT22;46577;49.004;12.120;2023-04-24T00:07:18;12.50;99.90
60727;DHT22;46577;49.004;12.120;2023-04-24T00:09:45;12.50;99.90
60727;DHT22;46577;49.004;12.120;2023-04-24T00:12:11;12.40;99.90
60727;DHT22;46577;49.004;12.120;2023-04-24T00:14:36;12.60;99.90
60727;DHT22;46577;49.004;12.120;2023-04-24T00:17:02;12.60;99.90
60727;DHT22;46577;49.004;12.120;2023-04-24T00:19:29;12.50;99.90
60727;DHT22;46577;49.004;12.120;2023-04-24T00:21:55;12.60;99.90
60727;DHT22;46577;49.004;12.120;2023-04-24T00:24:21;12.60;99.90
60727;DHT22;46577;49.004;12.120;2023-04-24T00:26:47;12.50;99.90
60727;DHT22;46577;49.004;12.120;2023-04-24T00:29:12;12.60;99.90
60727;DHT22;46577;49.004;12.120;2023-04-24T00:31:38;12.60;99.90
60727;DHT22;46577;49.004;12.120;2023-04-24T00:34:05;12.70;99.90
60727;DHT22;46577;49.004;12.120;2023-04-24T00:36:31;12.70;99.90
60727;DHT22;46577;49.004;12.120;2023-04-24T00:38:57;12.70;99.90
60727;DHT22;46577;49.004;12.120;2023-04-24T00:41:24;12.70;99.90
60727;DHT22;46577;49.004;12.120;2023-04-24T00:43:51;12.70;99.90
60727;DHT22;46577;49.004;12.120;2023-04-24T00:46:17;12.80;99.90
60727;DHT22;46577;49.004;12.120;2023-04-24T00:48:43;12.80;99.90
60727;DHT22;46577;49.004;12.120;2023-04-24T00:51:09;12.80;99.90
60727;DHT22;46577;49.004;12.120;2023-04-24T00:53:34;12.90;99.90
60727;DHT22;46577;49.004;12.120;2023-04-24T00:56:01;12.90;99.90
60727;DHT22;46577;49.004;12.120;2023-04-24T00:58:27;13.00;99.90
60727;DHT22;46577;49.004;12.120;2023-04-24T01:00:54;13.00;99.90
60727;DHT22;46577;49.004;12.120;2023-04-24T01:03:22;13.00;99.90
60727;DHT22;46577;49.004;12.120;2023-04-24T01:05:50;12.80;99.90
60727;DHT22;46577;49.004;12.120;2023-04-24T01:08:16;12.70;99.90
60727;DHT22;46577;49.004;12.120;2023-04-24T01:10:43;12.60;99.90
60727;DHT22;46577;49.004;12.120;2023-04-24T01:13:09;12.60;99.90
60727;DHT22;46577;49.004;12.120;2023-04-24T01:15:35;12.50;99.90
60727;DHT22;46577;49.004;12.120;2023-04-24T01:18:01;12.50;99.90
60727;DHT22;46577;49.004;12.120;2023-04-24T01:20:27;12.60;99.90
60727;DHT22;46577;49.004;12.120;2023-04-24T01:22:54;12.60;99.90
60727;DHT22;46577;49.004;12.120;2023-04-24T01:25:22;12.60;99.90
60727;DHT22;46577;49.004;12.120;2023-04-24T01:27:47;12.60;99.90
60727;DHT22;46577;49.004;12.120;2023-04-24T01:30:13;12.70;99.90
60727;DHT22;46577;49.004;12.120;2023-04-24T01:32:40;12.70;99.90
60727;DHT22;46577;49.004;12.120;2023-04-24T01:35:07;12.80;99.90
60727;DHT22;46577;49.004;12.120;2023-04-24T01:37:33;12.90;99.90
60727;DHT22;46577;49.004;12.120;2023-04-24T01:39:59;12.90;99.90
60727;DHT22;46577;49.004;12.120;2023-04-24T01:42:25;12.80;99.90
60727;DHT22;46577;49.004;12.120;2023-04-24T01:44:51;12.70;99.90
60727;DHT22;46577;49.004;12.120;2023-04-24T01:47:19;12.60;99.90
60727;DHT22;46577;49.004;12.120;2023-04-24T01:49:46;12.60;99.90
60727;DHT22;46577;49.004;12.120;2023-04-24T01:52:13;12.70;99.90
60727;DHT22;46577;49.004;12.120;2023-04-24T01:54:38;12.70;99.90
60727;DHT22;46577;49.004;12.120;2023-04-24T01:57:04;12.70;99.90
60727;DHT22;46577;49.004;12.120;2023-04-24T01:59:31;12.60;99.90
60727;DHT22;46577;49.004;12.120;2023-04-24T02:01:58;12.70;99.90
60727;DHT22;46577;49.004;12.120;2023-04-24T02:04:24;12.70;99.90
60727;DHT22;46577;49.004;12.120;2023-04-24T02:06:49;12.70;99.90
60727;DHT22;46577;49.004;12.120;2023-04-24T02:09:15;12.70;99.90
60727;DHT22;46577;49.004;12.120;2023-04-24T02:11:41;12.70;99.90
60727;DHT22;46577;49.004;12.120;2023-04-24T02:14:06;12.70;99.90
60727;DHT22;46577;49.004;12.120;2023-04-24T02:16:32;12.10;99.90
60727;DHT22;46577;49.004;12.120;2023-04-24T02:18:58;12.70;99.90
60727;DHT22;46577;49.004;12.120;2023-04-24T02:21:24;12.70;99.90
60727;DHT22;46577;49.004;12.120;2023-04-24T02:23:49;12.70;99.90
60727;DHT22;46577;49.004;12.120;2023-04-24T02:26:15;12.70;99.90
60727;DHT22;46577;49.004;12.120;2023-04-24T02:28:41;12.70;99.90
60727;DHT22;46577;49.004;12.120;2023-04-24T02:31:07;12.60;99.90
60727;DHT22;46577;49.004;12.120;2023-04-24T02:33:33;12.60;99.90
60727;DHT22;46577;49.004;12.120;2023-04-24T02:35:58;12.60;99.90
60727;DHT22;46577;49.004;12.120;2023-04-24T02:38:24;12.60;99.90
60727;DHT22;46577;49.004;12.120;2023-04-24T02:40:50;12.60;99.90
60727;DHT22;46577;49.004;12.120;2023-04-24T02:43:15;12.50;99.90
60727;DHT22;46577;49.004;12.120;2023-04-24T02:45:41;12.40;99.90
60727;DHT22;46577;49.004;12.120;2023-04-24T02:48:07;12.50;99.90
60727;DHT22;46577;49.004;12.120;2023-04-24T02:50:32;12.40;99.90
60727;DHT22;46577;49.004;12.120;2023-04-24T02:52:58;12.40;99.90
60727;DHT22;46577;49.004;12.120;2023-04-24T02:55:24;12.40;99.90
60727;DHT22;46577;49.004;12.120;2023-04-24T02:57:50;12.40;99.90
60727;DHT22;46577;49.004;12.120;2023-04-24T03:00:16;12.30;99.90
60727;DHT22;46577;49.004;12.120;2023-04-24T03:02:42;12.20;99.90
60727;DHT22;46577;49.004;12.120;2023-04-24T03:05:07;12.20;99.90
60727;DHT22;46577;49.004;12.120;2023-04-24T03:07:34;12.20;99.90
60727;DHT22;46577;49.004;12.120;2023-04-24T03:10:00;12.30;99.90
60727;DHT22;46577;49.004;12.120;2023-04-24T03:12:25;12.30;99.90
60727;DHT22;46577;49.004;12.120;2023-04-24T03:14:51;12.30;99.90
60727;DHT22;46577;49.004;12.120;2023-04-24T03:17:16;12.20;99.90
60727;DHT22;46577;49.004;12.120;2023-04-24T03:19:42;12.20;99.90
60727;DHT22;46577;49.004;12.120;2023-04-24T03:22:08;12.00;99.90
60727;DHT22;46577;49.004;12.120;2023-04-24T03:24:34;12.10;99.90
60727;DHT22;46577;49.004;12.120;2023-04-24T03:27:00;12.10;99.90
60727;DHT22;46577;49.004;12.120;2023-04-24T03:29:25;12.10;99.90
60727;DHT22;46577;49.004;12.120;2023-04-24T03:31:51;11.90;99.90
60727;DHT22;46577;49.004;12.120;2023-04-24T03:34:17;12.00;99.90
60727;DHT22;46577;49.004;12.120;2023-04-24T03:36:42;12.00;99.90
60727;DHT22;46577;49.004;12.120;2023-04-24T03:39:08;12.00;99.90
60727;DHT22;46577;49.004;12.120;2023-04-24T03:41:33;11.90;99.90
60727;DHT22;46577;49.004;12.120;2023-04-24T03:43:59;11.90;99.90
60727;DHT22;46577;49.004;12.120;2023-04-24T03:46:25;11.80;99.90
60727;DHT22;46577;49.004;12.120;2023-04-24T03:48:51;11.80;99.90
60727;DHT22;46577;49.004;12.120;2023-04-24T03:51:16;11.80;99.90
60727;DHT22;46577;49.004;12.120;2023-04-24T03:53:42;11.80;99.90
60727;DHT22;46577;49.004;12.120;2023-04-24T03:56:07;11.80;99.90
60727;DHT22;46577;49.004;12.120;2023-04-24T03:58:33;11.60;99.90
60727;DHT22;46577;49.004;12.120;2023-04-24T04:00:58;11.60;99.90
60727;DHT22;46577;49.004;12.120;2023-04-24T04:03:25;11.60;99.90
60727;DHT22;46577;49.004;12.120;2023-04-24T04:05:51;11.60;99.90
60727;DHT22;46577;49.004;12.120;2023-04-24T04:08:17;11.50;99.90
60727;DHT22;46577;49.004;12.120;2023-04-24T04:10:42;11.60;99.90
60727;DHT22;46577;49.004;12.120;2023-04-24T04:13:08;11.50;99.90
60727;DHT22;46577;49.004;12.120;2023-04-24T04:15:33;11.50;99.90
60727;DHT22;46577;49.004;12.120;2023-04-24T04:17:59;11.50;99.90
60727;DHT22;46577;49.004;12.120;2023-04-24T04:20:25;11.50;99.90
60727;DHT22;46577;49.004;12.120;2023-04-24T04:22:50;11.50;99.90
60727;DHT22;46577;49.004;12.120;2023-04-24T04:25:16;11.50;99.90
60727;DHT22;46577;49.004;12.120;2023-04-24T04:27:45;11.60;99.90
60727;DHT22;46577;49.004;12.120;2023-04-24T04:30:11;11.50;99.90
60727;DHT22;46577;49.004;12.120;2023-04-24T04:32:36;11.60;99.90
60727;DHT22;46577;49.004;12.120;2023-04-24T04:35:03;11.60;99.90
60727;DHT22;46577;49.004;12.120;2023-04-24T04:37:32;11.70;99.90
60727;DHT22;46577;49.004;12.120;2023-04-24T04:40:01;11.70;99.90
60727;DHT22;46577;49.004;12.120;2023-04-24T04:42:32;11.70;99.90
60727;DHT22;46577;49.004;12.120;2023-04-24T04:45:02;11.70;99.90
60727;DHT22;46577;49.004;12.120;2023-04-24T04:47:28;11.60;99.90
60727;DHT22;46577;49.004;12.120;2023-04-24T04:49:54;11.60;99.90
60727;DHT22;46577;49.004;12.120;2023-04-24T04:52:20;11.50;99.90
60727;DHT22;46577;49.004;12.120;2023-04-24T04:54:45;11.60;99.90
60727;DHT22;46577;49.004;12.120;2023-04-24T04:57:11;11.50;99.90
60727;DHT22;46577;49.004;12.120;2023-04-24T04:59:37;11.60;99.90
60727;DHT22;46577;49.004;12.120;2023-04-24T05:02:03;11.60;99.90
60727;DHT22;46577;49.004;12.120;2023-04-24T05:04:29;11.60;99.90
60727;DHT22;46577;49.004;12.120;2023-04-24T05:06:55;11.40;99.90
60727;DHT22;46577;49.004;12.120;2023-04-24T05:09:21;11.50;99.90
60727;DHT22;46577;49.004;12.120;2023-04-24T05:11:47;11.50;99.90
60727;DHT22;46577;49.004;12.120;2023-04-24T05:14:12;11.50;99.90
60727;DHT22;46577;49.004;12.120;2023-04-24T05:16:38;11.60;99.90
60727;DHT22;46577;49.004;12.120;2023-04-24T05:19:04;11.70;99.90
60727;DHT22;46577;49.004;12.120;2023-04-24T05:21:30;11.60;99.90
60727;DHT22;46577;49.004;12.120;2023-04-24T05:23:56;12.00;99.90
60727;DHT22;46577;49.004;12.120;2023-04-24T05:26:22;11.70;99.90
60727;DHT22;46577;49.004;12.120;2023-04-24T05:28:48;11.80;99.90
60727;DHT22;46577;49.004;12.120;2023-04-24T05:31:13;11.90;99.90
60727;DHT22;46577;49.004;12.120;2023-04-24T05:33:39;11.80;99.90
60727;DHT22;46577;49.004;12.120;2023-04-24T05:36:06;11.70;99.90
60727;DHT22;46577;49.004;12.120;2023-04-24T05:38:32;11.70;99.90
60727;DHT22;46577;49.004;12.120;2023-04-24T05:40:57;11.80;99.90
60727;DHT22;46577;49.004;12.120;2023-04-24T05:43:23;11.80;99.90
60727;DHT22;46577;49.004;12.120;2023-04-24T05:45:48;11.80;99.90
60727;DHT22;46577;49.004;12.120;2023-04-24T05:48:14;11.80;99.90
60727;DHT22;46577;49.004;12.120;2023-04-24T05:50:40;12.00;99.90
60727;DHT22;46577;49.004;12.120;2023-04-24T05:53:05;12.00;99.90
60727;DHT22;46577;49.004;12.120;2023-04-24T05:55:32;12.10;99.90
60727;DHT22;46577;49.004;12.120;2023-04-24T05:57:58;12.10;99.90
60727;DHT22;46577;49.004;12.120;2023-04-24T06:00:25;12.20;99.90
60727;DHT22;46577;49.004;12.120;2023-04-24T06:02:50;12.20;99.90
60727;DHT22;46577;49.004;12.120;2023-04-24T06:05:18;12.10;99.90
60727;DHT22;46577;49.004;12.120;2023-04-24T06:07:44;12.20;99.90
60727;DHT22;46577;49.004;12.120;2023-04-24T06:10:10;12.10;99.90
60727;DHT22;46577;49.004;12.120;2023-04-24T06:12:36;12.20;99.90
60727;DHT22;46577;49.004;12.120;2023-04-24T06:15:03;12.30;99.90
60727;DHT22;46577;49.004;12.120;2023-04-24T06:17:29;12.30;99.90
60727;DHT22;46577;49.004;12.120;2023-04-24T06:19:54;12.40;99.90
60727;DHT22;46577;49.004;12.120;2023-04-24T06:22:20;12.40;99.90
60727;DHT22;46577;49.004;12.120;2023-04-24T06:24:45;12.50;99.90
60727;DHT22;46577;49.004;12.120;2023-04-24T06:27:13;12.60;99.90
60727;DHT22;46577;49.004;12.120;2023-04-24T06:29:38;12.60;99.90
60727;DHT22;46577;49.004;12.120;2023-04-24T06:32:05;12.70;99.90
60727;DHT22;46577;49.004;12.120;2023-04-24T06:34:30;12.80;99.90
60727;DHT22;46577;49.004;12.120;2023-04-24T06:36:58;12.80;99.90
60727;DHT22;46577;49.004;12.120;2023-04-24T06:39:23;12.90;99.90
60727;DHT22;46577;49.004;12.120;2023-04-24T06:41:49;13.00;99.90
60727;DHT22;46577;49.004;12.120;2023-04-24T06:44:15;13.20;99.90
60727;DHT22;46577;49.004;12.120;2023-04-24T06:46:41;13.40;99.90
60727;DHT22;46577;49.004;12.120;2023-04-24T06:49:06;13.50;99.90
60727;DHT22;46577;49.004;12.120;2023-04-24T06:51:32;13.70;99.90
60727;DHT22;46577;49.004;12.120;2023-04-24T06:53:58;13.90;99.90
60727;DHT22;46577;49.004;12.120;2023-04-24T06:56:25;14.10;99.90
60727;DHT22;46577;49.004;12.120;2023-04-24T06:58:51;14.20;99.90
60727;DHT22;46577;49.004;12.120;2023-04-24T07:01:17;14.30;99.90
60727;DHT22;46577;49.004;12.120;2023-04-24T07:03:42;14.40;99.90
60727;DHT22;46577;49.004;12.120;2023-04-24T07:06:09;14.30;99.90
60727;DHT22;46577;49.004;12.120;2023-04-24T07:08:36;14.30;99.90
60727;DHT22;46577;49.004;12.120;2023-04-24T07:11:02;14.50;99.90
60727;DHT22;46577;49.004;12.120;2023-04-24T07:13:27;14.90;99.90
60727;DHT22;46577;49.004;12.120;2023-04-24T07:15:54;15.00;99.90
60727;DHT22;46577;49.004;12.120;2023-04-24T07:18:21;15.20;99.90
60727;DHT22;46577;49.004;12.120;2023-04-24T07:20:46;15.30;99.90
60727;DHT22;46577;49.004;12.120;2023-04-24T07:23:12;15.40;99.90
60727;DHT22;46577;49.004;12.120;2023-04-24T07:25:38;15.40;99.90
60727;DHT22;46577;49.004;12.120;2023-04-24T07:28:04;15.60;99.90
60727;DHT22;46577;49.004;12.120;2023-04-24T07:30:31;15.70;99.90
60727;DHT22;46577;49.004;12.120;2023-04-24T07:32:58;15.80;99.90
60727;DHT22;46577;49.004;12.120;2023-04-24T07:35:25;15.60;99.90
60727;DHT22;46577;49.004;12.120;2023-04-24T07:37:52;15.60;99.90
60727;DHT22;46577;49.004;12.120;2023-04-24T07:40:18;15.30;99.90
60727;DHT22;46577;49.004;12.120;2023-04-24T07:42:44;15.40;99.90
60727;DHT22;46577;49.004;12.120;2023-04-24T07:45:10;15.40;99.90
60727;DHT22;46577;49.004;12.120;2023-04-24T07:47:35;15.40;99.90
60727;DHT22;46577;49.004;12.120;2023-04-24T07:50:02;15.50;99.90
60727;DHT22;46577;49.004;12.120;2023-04-24T07:52:28;15.40;99.90
60727;DHT22;46577;49.004;12.120;2023-04-24T07:54:55;15.30;99.90
60727;DHT22;46577;49.004;12.120;2023-04-24T07:57:24;15.40;99.90
60727;DHT22;46577;49.004;12.120;2023-04-24T07:59:50;15.70;99.90
60727;DHT22;46577;49.004;12.120;2023-04-24T08:02:16;15.70;99.90
60727;DHT22;46577;49.004;12.120;2023-04-24T08:04:42;15.50;99.90
60727;DHT22;46577;49.004;12.120;2023-04-24T08:07:07;15.30;99.90
60727;DHT22;46577;49.004;12.120;2023-04-24T08:09:33;15.20;99.90
60727;DHT22;46577;49.004;12.120;2023-04-24T08:11:59;15.00;99.90
60727;DHT22;46577;49.004;12.120;2023-04-24T08:14:25;15.00;99.90
60727;DHT22;46577;49.004;12.120;2023-04-24T08:16:52;15.30;99.90
60727;DHT22;46577;49.004;12.120;2023-04-24T08:19:17;15.80;99.90
60727;DHT22;46577;49.004;12.120;2023-04-24T08:21:43;16.30;99.90
60727;DHT22;46577;49.004;12.120;2023-04-24T08:24:08;16.60;99.90
60727;DHT22;46577;49.004;12.120;2023-04-24T08:26:34;17.70;99.90
60727;DHT22;46577;49.004;12.120;2023-04-24T08:29:00;19.40;99.90
60727;DHT22;46577;49.004;12.120;2023-04-24T08:31:26;21.10;96.70
60727;DHT22;46577;49.004;12.120;2023-04-24T08:33:52;22.10;93.60
60727;DHT22;46577;49.004;12.120;2023-04-24T08:36:17;22.00;91.50
60727;DHT22;46577;49.004;12.120;2023-04-24T08:38:43;22.60;90.10
60727;DHT22;46577;49.004;12.120;2023-04-24T08:41:09;20.30;86.20
60727;DHT22;46577;49.004;12.120;2023-04-24T08:43:35;18.50;87.50
60727;DHT22;46577;49.004;12.120;2023-04-24T08:46:04;17.10;92.90
60727;DHT22;46577;49.004;12.120;2023-04-24T08:48:30;15.80;95.00
60727;DHT22;46577;49.004;12.120;2023-04-24T08:50:57;15.10;96.40
60727;DHT22;46577;49.004;12.120;2023-04-24T08:53:25;14.70;99.90
60727;DHT22;46577;49.004;12.120;2023-04-24T08:55:51;14.70;99.90
60727;DHT22;46577;49.004;12.120;2023-04-24T08:58:19;14.50;99.90
60727;DHT22;46577;49.004;12.120;2023-04-24T09:00:45;14.30;99.90
60727;DHT22;46577;49.004;12.120;2023-04-24T09:03:16;14.40;99.90
60727;DHT22;46577;49.004;12.120;2023-04-24T09:05:47;14.10;99.90
60727;DHT22;46577;49.004;12.120;2023-04-24T09:08:18;13.80;99.90
60727;DHT22;46577;49.004;12.120;2023-04-24T09:10:44;14.10;99.90
60727;DHT22;46577;49.004;12.120;2023-04-24T09:13:10;14.40;99.90
60727;DHT22;46577;49.004;12.120;2023-04-24T09:15:37;14.60;99.90
60727;DHT22;46577;49.004;12.120;2023-04-24T09:18:04;14.70;99.90
60727;DHT22;46577;49.004;12.120;2023-04-24T09:20:31;15.00;99.90
60727;DHT22;46577;49.004;12.120;2023-04-24T09:22:57;15.00;99.90
60727;DHT22;46577;49.004;12.120;2023-04-24T09:25:31;15.50;99.90
60727;DHT22;46577;49.004;12.120;2023-04-24T09:28:01;16.10;99.90
60727;DHT22;46577;49.004;12.120;2023-04-24T09:30:28;17.00;99.90
60727;DHT22;46577;49.004;12.120;2023-04-24T09:33:13;17.60;98.80
60727;DHT22;46577;49.004;12.120;2023-04-24T09:35:42;18.00;97.80
60727;DHT22;46577;49.004;12.120;2023-04-24T09:38:08;17.90;98.30
60727;DHT22;46577;49.004;12.120;2023-04-24T09:40:35;18.00;97.50
60727;DHT22;46577;49.004;12.120;2023-04-24T09:43:01;17.90;97.80
60727;DHT22;46577;49.004;12.120;2023-04-24T09:45:31;17.50;96.40
60727;DHT22;46577;49.004;12.120;2023-04-24T09:48:00;18.00;98.10
60727;DHT22;46577;49.004;12.120;2023-04-24T09:50:26;19.90;95.00
60727;DHT22;46577;49.004;12.120;2023-04-24T09:53:03;22.00;91.10
60727;DHT22;46577;49.004;12.120;2023-04-24T09:55:29;22.50;83.60
60727;DHT22;46577;49.004;12.120;2023-04-24T09:57:57;21.50;78.20
60727;DHT22;46577;49.004;12.120;2023-04-24T10:03:09;24.30;71.20
60727;DHT22;46577;49.004;12.120;2023-04-24T10:05:36;23.30;70.00
60727;DHT22;46577;49.004;12.120;2023-04-24T10:08:13;21.90;70.70
60727;DHT22;46577;49.004;12.120;2023-04-24T10:10:44;20.80;71.90
60727;DHT22;46577;49.004;12.120;2023-04-24T10:13:11;19.90;76.30
60727;DHT22;46577;49.004;12.120;2023-04-24T10:15:37;18.50;80.10
60727;DHT22;46577;49.004;12.120;2023-04-24T10:18:05;18.40;84.20
60727;DHT22;46577;49.004;12.120;2023-04-24T10:20:32;18.20;84.10
60727;DHT22;46577;49.004;12.120;2023-04-24T10:22:59;18.20;83.50
60727;DHT22;46577;49.004;12.120;2023-04-24T10:25:31;17.80;85.90
60727;DHT22;46577;49.004;12.120;2023-04-24T10:27:58;17.90;83.80
60727;DHT22;46577;49.004;12.120;2023-04-24T10:30:29;17.90;82.50
60727;DHT22;46577;49.004;12.120;2023-04-24T10:32:55;17.90;83.40
60727;DHT22;46577;49.004;12.120;2023-04-24T10:35:22;17.70;83.40
60727;DHT22;46577;49.004;12.120;2023-04-24T10:37:54;17.50;81.70
60727;DHT22;46577;49.004;12.120;2023-04-24T10:40:31;17.50;81.40
60727;DHT22;46577;49.004;12.120;2023-04-24T10:42:57;17.60;80.00
60727;DHT22;46577;49.004;12.120;2023-04-24T10:45:24;17.50;79.40
60727;DHT22;46577;49.004;12.120;2023-04-24T10:47:53;17.20;80.00
60727;DHT22;46577;49.004;12.120;2023-04-24T10:50:19;17.40;79.50
60727;DHT22;46577;49.004;12.120;2023-04-24T10:52:49;17.70;80.20
60727;DHT22;46577;49.004;12.120;2023-04-24T10:55:16;18.10;77.30
60727;DHT22;46577;49.004;12.120;2023-04-24T10:58:03;18.50;73.90
60727;DHT22;46577;49.004;12.120;2023-04-24T11:00:29;18.60;73.50
60727;DHT22;46577;49.004;12.120;2023-04-24T11:02:55;18.80;72.80
60727;DHT22;46577;49.004;12.120;2023-04-24T11:05:23;19.10;71.50
60727;DHT22;46577;49.004;12.120;2023-04-24T11:08:16;19.60;69.40
60727;DHT22;46577;49.004;12.120;2023-04-24T11:10:54;19.30;68.90
60727;DHT22;46577;49.004;12.120;2023-04-24T11:13:27;19.60;66.50
60727;DHT22;46577;49.004;12.120;2023-04-24T11:16:21;19.50;67.10
60727;DHT22;46577;49.004;12.120;2023-04-24T11:21:49;18.60;68.60
60727;DHT22;46577;49.004;12.120;2023-04-24T11:26:54;17.70;70.40
60727;DHT22;46577;49.004;12.120;2023-04-24T11:29:20;17.50;70.30
60727;DHT22;46577;49.004;12.120;2023-04-24T11:31:47;17.20;73.20
60727;DHT22;46577;49.004;12.120;2023-04-24T11:34:15;16.60;81.70
60727;DHT22;46577;49.004;12.120;2023-04-24T11:36:47;16.40;81.00
60727;DHT22;46577;49.004;12.120;2023-04-24T11:39:14;16.20;83.20
60727;DHT22;46577;49.004;12.120;2023-04-24T11:41:40;15.40;84.20
60727;DHT22;46577;49.004;12.120;2023-04-24T11:44:08;14.70;88.80
60727;DHT22;46577;49.004;12.120;2023-04-24T11:46:34;14.50;90.50
60727;DHT22;46577;49.004;12.120;2023-04-24T11:48:59;14.50;91.00
60727;DHT22;46577;49.004;12.120;2023-04-24T11:51:26;14.60;90.80
60727;DHT22;46577;49.004;12.120;2023-04-24T11:53:55;14.50;91.30
60727;DHT22;46577;49.004;12.120;2023-04-24T11:56:22;14.70;91.60
60727;DHT22;46577;49.004;12.120;2023-04-24T11:58:48;15.00;90.30
60727;DHT22;46577;49.004;12.120;2023-04-24T12:01:13;15.80;90.40
60727;DHT22;46577;49.004;12.120;2023-04-24T12:03:40;16.60;85.70
60727;DHT22;46577;49.004;12.120;2023-04-24T12:06:10;17.60;84.70
60727;DHT22;46577;49.004;12.120;2023-04-24T12:08:37;18.50;83.20
60727;DHT22;46577;49.004;12.120;2023-04-24T12:11:04;19.20;78.20
60727;DHT22;46577;49.004;12.120;2023-04-24T12:13:32;19.30;72.00
60727;DHT22;46577;49.004;12.120;2023-04-24T12:15:58;19.20;72.70
60727;DHT22;46577;49.004;12.120;2023-04-24T12:18:24;19.20;72.40
60727;DHT22;46577;49.004;12.120;2023-04-24T12:20:50;18.90;69.90
60727;DHT22;46577;49.004;12.120;2023-04-24T12:23:16;18.90;70.20
60727;DHT22;46577;49.004;12.120;2023-04-24T12:25:43;19.10;68.90
60727;DHT22;46577;49.004;12.120;2023-04-24T12:28:11;19.10;68.90
60727;DHT22;46577;49.004;12.120;2023-04-24T12:30:46;18.60;70.30
60727;DHT22;46577;49.004;12.120;2023-04-24T12:33:17;18.60;68.90
60727;DHT22;46577;49.004;12.120;2023-04-24T12:35:45;18.20;68.90
60727;DHT22;46577;49.004;12.120;2023-04-24T12:38:12;18.10;66.60
60727;DHT22;46577;49.004;12.120;2023-04-24T12:40:39;17.60;65.50
60727;DHT22;46577;49.004;12.120;2023-04-24T12:43:20;17.60;69.20
60727;DHT22;46577;49.004;12.120;2023-04-24T12:45:48;17.90;69.20
60727;DHT22;46577;49.004;12.120;2023-04-24T12:48:14;18.20;67.50
60727;DHT22;46577;49.004;12.120;2023-04-24T12:50:39;18.20;66.50
60727;DHT22;46577;49.004;12.120;2023-04-24T12:53:07;18.00;65.00
60727;DHT22;46577;49.004;12.120;2023-04-24T12:55:33;17.80;64.90
60727;DHT22;46577;49.004;12.120;2023-04-24T12:57:59;18.00;65.80
60727;DHT22;46577;49.004;12.120;2023-04-24T13:00:25;18.20;65.70
60727;DHT22;46577;49.004;12.120;2023-04-24T13:02:50;18.10;63.10
60727;DHT22;46577;49.004;12.120;2023-04-24T13:05:16;18.40;64.70
60727;DHT22;46577;49.004;12.120;2023-04-24T13:07:42;18.30;63.80
60727;DHT22;46577;49.004;12.120;2023-04-24T13:10:08;17.90;62.50
60727;DHT22;46577;49.004;12.120;2023-04-24T13:12:34;17.50;63.90
60727;DHT22;46577;49.004;12.120;2023-04-24T13:15:00;17.10;64.40
60727;DHT22;46577;49.004;12.120;2023-04-24T13:17:26;16.50;65.10
60727;DHT22;46577;49.004;12.120;2023-04-24T13:19:54;16.20;65.70
60727;DHT22;46577;49.004;12.120;2023-04-24T13:22:20;15.90;65.80
60727;DHT22;46577;49.004;12.120;2023-04-24T13:24:46;15.70;66.10
60727;DHT22;46577;49.004;12.120;2023-04-24T13:27:14;15.70;68.10
60727;DHT22;46577;49.004;12.120;2023-04-24T13:29:40;16.00;67.90
60727;DHT22;46577;49.004;12.120;2023-04-24T13:32:06;16.40;65.70
60727;DHT22;46577;49.004;12.120;2023-04-24T13:34:31;16.70;65.00
60727;DHT22;46577;49.004;12.120;2023-04-24T13:36:58;16.90;61.90
60727;DHT22;46577;49.004;12.120;2023-04-24T13:39:24;17.00;62.60
60727;DHT22;46577;49.004;12.120;2023-04-24T13:41:50;17.20;63.20
60727;DHT22;46577;49.004;12.120;2023-04-24T13:44:17;17.40;61.50
60727;DHT22;46577;49.004;12.120;2023-04-24T13:46:45;17.60;62.10
60727;DHT22;46577;49.004;12.120;2023-04-24T13:49:14;17.50;61.10
60727;DHT22;46577;49.004;12.120;2023-04-24T13:51:40;17.50;59.60
60727;DHT22;46577;49.004;12.120;2023-04-24T13:54:06;17.30;55.80
60727;DHT22;46577;49.004;12.120;2023-04-24T13:56:32;17.00;56.60
60727;DHT22;46577;49.004;12.120;2023-04-24T13:58:58;16.80;56.40
60727;DHT22;46577;49.004;12.120;2023-04-24T14:01:24;16.30;56.40
60727;DHT22;46577;49.004;12.120;2023-04-24T14:03:53;15.90;57.80
60727;DHT22;46577;49.004;12.120;2023-04-24T14:06:19;15.90;59.50
60727;DHT22;46577;49.004;12.120;2023-04-24T14:08:46;16.20;60.70
60727;DHT22;46577;49.004;12.120;2023-04-24T14:11:12;16.60;58.90
60727;DHT22;46577;49.004;12.120;2023-04-24T14:13:38;16.60;59.90
60727;DHT22;46577;49.004;12.120;2023-04-24T14:16:04;17.00;59.80
60727;DHT22;46577;49.004;12.120;2023-04-24T14:18:30;17.30;60.30
60727;DHT22;46577;49.004;12.120;2023-04-24T14:20:55;17.30;59.60
60727;DHT22;46577;49.004;12.120;2023-04-24T14:23:21;17.10;60.10
60727;DHT22;46577;49.004;12.120;2023-04-24T14:25:47;16.80;60.40
60727;DHT22;46577;49.004;12.120;2023-04-24T14:28:16;16.70;61.70
60727;DHT22;46577;49.004;12.120;2023-04-24T14:30:42;16.40;62.30
60727;DHT22;46577;49.004;12.120;2023-04-24T14:33:08;16.20;64.50
60727;DHT22;46577;49.004;12.120;2023-04-24T14:35:33;16.20;64.70
60727;DHT22;46577;49.004;12.120;2023-04-24T14:38:00;16.40;64.80
60727;DHT22;46577;49.004;12.120;2023-04-24T14:40:26;16.60;66.10
60727;DHT22;46577;49.004;12.120;2023-04-24T14:42:51;16.80;65.20
60727;DHT22;46577;49.004;12.120;2023-04-24T14:45:18;16.90;63.20
60727;DHT22;46577;49.004;12.120;2023-04-24T14:47:44;16.90;60.20
60727;DHT22;46577;49.004;12.120;2023-04-24T14:50:10;16.70;59.90
60727;DHT22;46577;49.004;12.120;2023-04-24T14:52:37;16.40;59.10
60727;DHT22;46577;49.004;12.120;2023-04-24T14:55:03;16.20;58.20
60727;DHT22;46577;49.004;12.120;2023-04-24T14:57:29;16.10;59.70
60727;DHT22;46577;49.004;12.120;2023-04-24T14:59:55;16.10;59.20
60727;DHT22;46577;49.004;12.120;2023-04-24T15:02:21;16.20;59.80
60727;DHT22;46577;49.004;12.120;2023-04-24T15:04:46;16.20;60.20
60727;DHT22;46577;49.004;12.120;2023-04-24T15:07:12;16.00;60.80
60727;DHT22;46577;49.004;12.120;2023-04-24T15:09:37;16.00;61.30
60727;DHT22;46577;49.004;12.120;2023-04-24T15:12:03;15.90;60.90
60727;DHT22;46577;49.004;12.120;2023-04-24T15:14:29;15.70;59.80
60727;DHT22;46577;49.004;12.120;2023-04-24T15:16:55;15.60;60.90
60727;DHT22;46577;49.004;12.120;2023-04-24T15:19:20;15.50;61.70